sensor_id;sensor_type;location;lat;lon;timestamp;temperature;humidity
913;DHT22;443;51.448;7.028;2022-12-20T00:01:23;12.80;67.30
913;DHT22;443;51.448;7.028;2022-12-20T00:03:51;12.80;67.00
913;DHT22;443;51.448;7.028;2022-12-20T00:06:18;12.80;67.30
913;DHT22;443;51.448;7.028;2022-12-20T00:08:46;12.80;67.10
913;DHT22;443;51.448;7.028;2022-12-20T00:11:13;12.80;67.80
913;DHT22;443;51.448;7.028;2022-12-20T00:13:40;12.80;68.40
913;DHT22;443;51.448;7.028;2022-12-20T00:16:10;12.80;67.50
913;DHT22;443;51.448;7.028;2022-12-20T00:18:38;12.80;68.30
913;DHT22;443;51.448;7.028;2022-12-20T00:21:07;12.80;66.40
913;DHT22;443;51.448;7.028;2022-12-20T00:23:35;12.80;66.90
913;DHT22;443;51.448;7.028;2022-12-20T00:26:03;12.80;68.10
913;DHT22;443;51.448;7.028;2022-12-20T00:28:30;12.80;67.10
913;DHT22;443;51.448;7.028;2022-12-20T00:30:57;12.80;67.40
913;DHT22;443;51.448;7.028;2022-12-20T00:33:25;12.80;66.50
913;DHT22;443;51.448;7.028;2022-12-20T00:35:54;12.80;66.90
913;DHT22;443;51.448;7.028;2022-12-20T00:38:21;12.80;67.10
913;DHT22;443;51.448;7.028;2022-12-20T00:40:58;12.80;68.00
913;DHT22;443;51.448;7.028;2022-12-20T00:43:25;12.80;68.60
913;DHT22;443;51.448;7.028;2022-12-20T00:45:52;12.80;67.30
913;DHT22;443;51.448;7.028;2022-12-20T00:48:18;12.80;67.50
913;DHT22;443;51.448;7.028;2022-12-20T00:50:46;12.80;66.90
913;DHT22;443;51.448;7.028;2022-12-20T00:53:13;12.80;67.20
913;DHT22;443;51.448;7.028;2022-12-20T00:55:41;12.80;67.80
913;DHT22;443;51.448;7.028;2022-12-20T00:58:07;12.80;67.10
913;DHT22;443;51.448;7.028;2022-12-20T01:00:34;12.80;67.00
913;DHT22;443;51.448;7.028;2022-12-20T01:03:01;12.80;67.10
913;DHT22;443;51.448;7.028;2022-12-20T01:05:28;12.80;67.70
913;DHT22;443;51.448;7.028;2022-12-20T01:07:56;12.80;67.40
913;DHT22;443;51.448;7.028;2022-12-20T01:10:23;12.80;67.40
913;DHT22;443;51.448;7.028;2022-12-20T01:12:49;12.80;67.60
913;DHT22;443;51.448;7.028;2022-12-20T01:15:16;12.80;67.70
913;DHT22;443;51.448;7.028;2022-12-20T01:17:43;12.80;67.40
913;DHT22;443;51.448;7.028;2022-12-20T01:20:10;12.80;68.00
913;DHT22;443;51.448;7.028;2022-12-20T01:22:37;12.80;67.50
913;DHT22;443;51.448;7.028;2022-12-20T01:25:06;12.80;67.70
913;DHT22;443;51.448;7.028;2022-12-20T01:27:33;12.80;67.90
913;DHT22;443;51.448;7.028;2022-12-20T01:29:59;12.80;68.20
913;DHT22;443;51.448;7.028;2022-12-20T01:32:26;12.80;67.20
913;DHT22;443;51.448;7.028;2022-12-20T01:34:53;12.80;66.90
913;DHT22;443;51.448;7.028;2022-12-20T01:37:20;12.80;68.10
913;DHT22;443;51.448;7.028;2022-12-20T01:39:46;12.80;67.20
913;DHT22;443;51.448;7.028;2022-12-20T01:42:15;12.80;67.20
913;DHT22;443;51.448;7.028;2022-12-20T01:44:58;12.80;66.90
913;DHT22;443;51.448;7.028;2022-12-20T01:47:29;12.80;67.00
913;DHT22;443;51.448;7.028;2022-12-20T01:49:58;12.80;67.70
913;DHT22;443;51.448;7.028;2022-12-20T01:52:30;12.70;67.00
913;DHT22;443;51.448;7.028;2022-12-20T01:55:03;12.70;66.70
913;DHT22;443;51.448;7.028;2022-12-20T01:57:37;12.80;68.00
913;DHT22;443;51.448;7.028;2022-12-20T02:00:06;12.70;66.90
913;DHT22;443;51.448;7.028;2022-12-20T02:02:34;12.70;67.40
913;DHT22;443;51.448;7.028;2022-12-20T02:05:01;12.70;66.50
913;DHT22;443;51.448;7.028;2022-12-20T02:07:30;12.80;68.50
913;DHT22;443;51.448;7.028;2022-12-20T02:09:59;12.70;67.20
913;DHT22;443;51.448;7.028;2022-12-20T02:12:33;12.70;67.40
913;DHT22;443;51.448;7.028;2022-12-20T02:17:56;12.80;67.20
913;DHT22;443;51.448;7.028;2022-12-20T02:21:03;12.70;66.80
913;DHT22;443;51.448;7.028;2022-12-20T02:23:48;12.70;67.10
913;DHT22;443;51.448;7.028;2022-12-20T02:26:37;12.70;67.60
913;DHT22;443;51.448;7.028;2022-12-20T02:29:20;12.80;69.20
913;DHT22;443;51.448;7.028;2022-12-20T02:31:55;12.70;67.60
913;DHT22;443;51.448;7.028;2022-12-20T02:34:23;12.80;68.50
913;DHT22;443;51.448;7.028;2022-12-20T02:36:52;12.70;67.30
913;DHT22;443;51.448;7.028;2022-12-20T02:39:19;12.70;68.00
913;DHT22;443;51.448;7.028;2022-12-20T02:41:51;12.70;68.40
913;DHT22;443;51.448;7.028;2022-12-20T02:44:21;12.70;68.50
913;DHT22;443;51.448;7.028;2022-12-20T02:47:12;12.70;68.40
913;DHT22;443;51.448;7.028;2022-12-20T02:49:43;12.70;68.20
913;DHT22;443;51.448;7.028;2022-12-20T02:52:11;12.70;67.10
913;DHT22;443;51.448;7.028;2022-12-20T02:54:39;12.70;67.80
913;DHT22;443;51.448;7.028;2022-12-20T02:57:12;12.70;67.30
913;DHT22;443;51.448;7.028;2022-12-20T02:59:46;12.70;68.30
913;DHT22;443;51.448;7.028;2022-12-20T03:02:17;12.70;68.90
913;DHT22;443;51.448;7.028;2022-12-20T03:04:45;12.70;68.20
913;DHT22;443;51.448;7.028;2022-12-20T03:07:13;12.70;68.20
913;DHT22;443;51.448;7.028;2022-12-20T03:09:43;12.70;68.10
913;DHT22;443;51.448;7.028;2022-12-20T03:12:11;12.70;68.00
913;DHT22;443;51.448;7.028;2022-12-20T03:14:38;12.70;69.50
913;DHT22;443;51.448;7.028;2022-12-20T03:17:05;12.60;67.80
913;DHT22;443;51.448;7.028;2022-12-20T03:19:34;12.70;68.40
913;DHT22;443;51.448;7.028;2022-12-20T03:22:00;12.70;68.90
913;DHT22;443;51.448;7.028;2022-12-20T03:24:27;12.70;69.60
913;DHT22;443;51.448;7.028;2022-12-20T03:26:54;12.70;69.20
913;DHT22;443;51.448;7.028;2022-12-20T03:29:20;12.70;69.50
913;DHT22;443;51.448;7.028;2022-12-20T03:31:47;12.60;69.20
913;DHT22;443;51.448;7.028;2022-12-20T03:34:14;12.60;68.20
913;DHT22;443;51.448;7.028;2022-12-20T03:36:42;12.60;69.50
913;DHT22;443;51.448;7.028;2022-12-20T03:39:09;12.60;69.10
913;DHT22;443;51.448;7.028;2022-12-20T03:41:36;12.60;69.30
913;DHT22;443;51.448;7.028;2022-12-20T03:44:03;12.60;70.00
913;DHT22;443;51.448;7.028;2022-12-20T03:46:30;12.60;69.00
913;DHT22;443;51.448;7.028;2022-12-20T03:48:56;12.60;70.00
913;DHT22;443;51.448;7.028;2022-12-20T03:51:23;12.60;69.30
913;DHT22;443;51.448;7.028;2022-12-20T03:53:51;12.60;70.60
913;DHT22;443;51.448;7.028;2022-12-20T03:56:18;12.60;69.00
913;DHT22;443;51.448;7.028;2022-12-20T03:58:45;12.60;68.60
913;DHT22;443;51.448;7.028;2022-12-20T04:01:19;12.60;70.20
913;DHT22;443;51.448;7.028;2022-12-20T04:03:46;12.60;69.90
913;DHT22;443;51.448;7.028;2022-12-20T04:06:12;12.60;69.10
913;DHT22;443;51.448;7.028;2022-12-20T04:08:39;12.60;68.70
913;DHT22;443;51.448;7.028;2022-12-20T04:11:07;12.60;69.30
913;DHT22;443;51.448;7.028;2022-12-20T04:13:44;12.60;70.10
913;DHT22;443;51.448;7.028;2022-12-20T04:16:11;12.60;71.10
913;DHT22;443;51.448;7.028;2022-12-20T04:18:38;12.60;69.30
913;DHT22;443;51.448;7.028;2022-12-20T04:21:05;12.60;68.80
913;DHT22;443;51.448;7.028;2022-12-20T04:23:33;12.60;69.60
913;DHT22;443;51.448;7.028;2022-12-20T04:26:00;12.50;68.60
913;DHT22;443;51.448;7.028;2022-12-20T04:28:29;12.60;69.60
913;DHT22;443;51.448;7.028;2022-12-20T04:30:56;12.60;71.10
913;DHT22;443;51.448;7.028;2022-12-20T04:33:24;12.60;69.40
913;DHT22;443;51.448;7.028;2022-12-20T04:35:51;12.60;69.60
913;DHT22;443;51.448;7.028;2022-12-20T04:38:18;12.50;69.80
913;DHT22;443;51.448;7.028;2022-12-20T04:40:47;12.60;71.00
913;DHT22;443;51.448;7.028;2022-12-20T04:43:14;12.60;69.80
913;DHT22;443;51.448;7.028;2022-12-20T04:45:42;12.50;70.50
913;DHT22;443;51.448;7.028;2022-12-20T04:48:09;12.50;70.40
913;DHT22;443;51.448;7.028;2022-12-20T04:50:36;12.50;70.30
913;DHT22;443;51.448;7.028;2022-12-20T04:53:03;12.50;70.80
913;DHT22;443;51.448;7.028;2022-12-20T04:55:47;12.50;70.10
913;DHT22;443;51.448;7.028;2022-12-20T04:58:14;12.50;71.30
913;DHT22;443;51.448;7.028;2022-12-20T05:00:42;12.50;71.90
913;DHT22;443;51.448;7.028;2022-12-20T05:03:09;12.50;72.80
913;DHT22;443;51.448;7.028;2022-12-20T05:05:35;12.50;71.90
913;DHT22;443;51.448;7.028;2022-12-20T05:08:03;12.50;72.30
913;DHT22;443;51.448;7.028;2022-12-20T05:10:30;12.40;72.70
913;DHT22;443;51.448;7.028;2022-12-20T05:12:57;12.40;71.30
913;DHT22;443;51.448;7.028;2022-12-20T05:15:24;12.40;73.70
913;DHT22;443;51.448;7.028;2022-12-20T05:17:52;12.40;74.20
913;DHT22;443;51.448;7.028;2022-12-20T05:20:23;12.40;73.50
913;DHT22;443;51.448;7.028;2022-12-20T05:22:50;12.40;74.00
913;DHT22;443;51.448;7.028;2022-12-20T05:25:36;12.40;74.20
913;DHT22;443;51.448;7.028;2022-12-20T05:28:30;12.40;73.10
913;DHT22;443;51.448;7.028;2022-12-20T05:30:57;12.40;74.10
913;DHT22;443;51.448;7.028;2022-12-20T05:33:25;12.40;74.40
913;DHT22;443;51.448;7.028;2022-12-20T05:35:53;12.40;72.60
913;DHT22;443;51.448;7.028;2022-12-20T05:38:20;12.40;73.60
913;DHT22;443;51.448;7.028;2022-12-20T05:40:48;12.40;73.10
913;DHT22;443;51.448;7.028;2022-12-20T05:43:16;12.50;73.70
913;DHT22;443;51.448;7.028;2022-12-20T05:45:45;12.50;72.40
913;DHT22;443;51.448;7.028;2022-12-20T05:48:12;12.50;73.60
913;DHT22;443;51.448;7.028;2022-12-20T05:50:40;12.50;72.40
913;DHT22;443;51.448;7.028;2022-12-20T05:53:08;12.50;71.60
913;DHT22;443;51.448;7.028;2022-12-20T05:55:35;12.50;72.20
913;DHT22;443;51.448;7.028;2022-12-20T05:58:05;12.60;71.10
913;DHT22;443;51.448;7.028;2022-12-20T06:00:32;12.60;71.90
913;DHT22;443;51.448;7.028;2022-12-20T06:02:59;12.60;72.80
913;DHT22;443;51.448;7.028;2022-12-20T06:05:25;12.60;73.10
913;DHT22;443;51.448;7.028;2022-12-20T06:07:53;12.60;72.60
913;DHT22;443;51.448;7.028;2022-12-20T06:10:20;12.60;72.80
913;DHT22;443;51.448;7.028;2022-12-20T06:12:47;12.60;72.10
913;DHT22;443;51.448;7.028;2022-12-20T06:15:14;12.70;71.30
913;DHT22;443;51.448;7.028;2022-12-20T06:17:41;12.70;70.70
913;DHT22;443;51.448;7.028;2022-12-20T06:20:08;12.70;70.70
913;DHT22;443;51.448;7.028;2022-12-20T06:22:36;12.70;71.50
913;DHT22;443;51.448;7.028;2022-12-20T06:25:05;12.70;71.00
913;DHT22;443;51.448;7.028;2022-12-20T06:27:33;12.80;70.00
913;DHT22;443;51.448;7.028;2022-12-20T06:30:00;12.80;70.70
913;DHT22;443;51.448;7.028;2022-12-20T06:32:27;12.70;70.90
913;DHT22;443;51.448;7.028;2022-12-20T06:34:54;12.80;71.70
913;DHT22;443;51.448;7.028;2022-12-20T06:37:21;12.80;71.70
913;DHT22;443;51.448;7.028;2022-12-20T06:39:48;12.70;70.70
913;DHT22;443;51.448;7.028;2022-12-20T06:42:17;12.80;70.90
913;DHT22;443;51.448;7.028;2022-12-20T06:44:43;12.80;70.40
913;DHT22;443;51.448;7.028;2022-12-20T06:47:10;12.80;71.30
913;DHT22;443;51.448;7.028;2022-12-20T06:49:37;12.80;70.10
913;DHT22;443;51.448;7.028;2022-12-20T06:52:04;12.80;70.60
913;DHT22;443;51.448;7.028;2022-12-20T06:54:31;12.80;70.40
913;DHT22;443;51.448;7.028;2022-12-20T06:56:57;12.80;69.40
913;DHT22;443;51.448;7.028;2022-12-20T06:59:26;12.80;70.20
913;DHT22;443;51.448;7.028;2022-12-20T07:01:54;12.80;71.40
913;DHT22;443;51.448;7.028;2022-12-20T07:04:21;12.80;71.00
913;DHT22;443;51.448;7.028;2022-12-20T07:06:48;12.80;70.10
913;DHT22;443;51.448;7.028;2022-12-20T07:09:15;12.80;70.70
913;DHT22;443;51.448;7.028;2022-12-20T07:11:42;12.80;70.00
913;DHT22;443;51.448;7.028;2022-12-20T07:14:09;12.80;70.20
913;DHT22;443;51.448;7.028;2022-12-20T07:16:37;12.80;70.50
913;DHT22;443;51.448;7.028;2022-12-20T07:19:06;12.90;72.10
913;DHT22;443;51.448;7.028;2022-12-20T07:21:33;12.80;70.50
913;DHT22;443;51.448;7.028;2022-12-20T07:24:00;12.80;70.00
913;DHT22;443;51.448;7.028;2022-12-20T07:26:26;12.80;70.00
913;DHT22;443;51.448;7.028;2022-12-20T07:28:53;12.90;70.60
913;DHT22;443;51.448;7.028;2022-12-20T07:31:20;12.90;69.50
913;DHT22;443;51.448;7.028;2022-12-20T07:33:48;12.90;69.70
913;DHT22;443;51.448;7.028;2022-12-20T07:36:15;12.90;69.40
913;DHT22;443;51.448;7.028;2022-12-20T07:38:42;12.90;70.40
913;DHT22;443;51.448;7.028;2022-12-20T07:41:10;12.90;69.80
913;DHT22;443;51.448;7.028;2022-12-20T07:43:38;12.90;69.60
913;DHT22;443;51.448;7.028;2022-12-20T07:46:05;12.90;69.80
913;DHT22;443;51.448;7.028;2022-12-20T07:48:33;13.00;69.90
913;DHT22;443;51.448;7.028;2022-12-20T07:51:05;12.90;69.10
913;DHT22;443;51.448;7.028;2022-12-20T07:53:34;13.00;70.30
913;DHT22;443;51.448;7.028;2022-12-20T07:56:04;12.90;69.70
913;DHT22;443;51.448;7.028;2022-12-20T07:58:32;13.00;70.90
913;DHT22;443;51.448;7.028;2022-12-20T08:01:01;12.90;69.40
913;DHT22;443;51.448;7.028;2022-12-20T08:03:34;13.00;69.60
913;DHT22;443;51.448;7.028;2022-12-20T08:06:04;13.00;69.80
913;DHT22;443;51.448;7.028;2022-12-20T08:08:33;12.90;70.10
913;DHT22;443;51.448;7.028;2022-12-20T08:11:01;13.00;69.80
913;DHT22;443;51.448;7.028;2022-12-20T08:13:30;13.00;69.70
913;DHT22;443;51.448;7.028;2022-12-20T08:15:58;13.00;69.90
913;DHT22;443;51.448;7.028;2022-12-20T08:18:25;13.00;69.20
913;DHT22;443;51.448;7.028;2022-12-20T08:20:51;13.00;70.20
913;DHT22;443;51.448;7.028;2022-12-20T08:23:19;13.00;69.60
913;DHT22;443;51.448;7.028;2022-12-20T08:25:46;13.00;69.50
913;DHT22;443;51.448;7.028;2022-12-20T08:28:13;13.00;69.80
913;DHT22;443;51.448;7.028;2022-12-20T08:30:40;13.00;69.80
913;DHT22;443;51.448;7.028;2022-12-20T08:33:07;13.00;69.10
913;DHT22;443;51.448;7.028;2022-12-20T08:35:33;13.00;69.50
913;DHT22;443;51.448;7.028;2022-12-20T08:38:00;13.00;69.50
913;DHT22;443;51.448;7.028;2022-12-20T08:40:28;13.10;69.10
913;DHT22;443;51.448;7.028;2022-12-20T08:42:55;13.10;68.90
913;DHT22;443;51.448;7.028;2022-12-20T08:45:22;13.10;70.00
913;DHT22;443;51.448;7.028;2022-12-20T08:47:48;13.10;69.50
913;DHT22;443;51.448;7.028;2022-12-20T08:50:15;13.10;69.80
913;DHT22;443;51.448;7.028;2022-12-20T08:52:43;13.10;70.00
913;DHT22;443;51.448;7.028;2022-12-20T08:55:10;13.10;70.10
913;DHT22;443;51.448;7.028;2022-12-20T08:57:38;13.00;68.90
913;DHT22;443;51.448;7.028;2022-12-20T09:00:06;13.10;69.60
913;DHT22;443;51.448;7.028;2022-12-20T09:02:34;13.10;68.90
913;DHT22;443;51.448;7.028;2022-12-20T09:05:02;13.10;69.20
913;DHT22;443;51.448;7.028;2022-12-20T09:07:29;13.10;68.80
913;DHT22;443;51.448;7.028;2022-12-20T09:09:56;13.10;69.50
913;DHT22;443;51.448;7.028;2022-12-20T09:12:22;13.10;69.50
913;DHT22;443;51.448;7.028;2022-12-20T09:14:51;13.10;68.70
913;DHT22;443;51.448;7.028;2022-12-20T09:17:17;13.10;68.40
913;DHT22;443;51.448;7.028;2022-12-20T09:19:44;13.20;69.40
913;DHT22;443;51.448;7.028;2022-12-20T09:22:11;13.20;69.80
913;DHT22;443;51.448;7.028;2022-12-20T09:24:38;13.20;69.30
913;DHT22;443;51.448;7.028;2022-12-20T09:27:04;13.10;69.10
913;DHT22;443;51.448;7.028;2022-12-20T09:29:31;13.20;69.30
913;DHT22;443;51.448;7.028;2022-12-20T09:31:59;13.20;68.90
913;DHT22;443;51.448;7.028;2022-12-20T09:34:26;13.20;69.40
913;DHT22;443;51.448;7.028;2022-12-20T09:36:52;13.10;68.10
913;DHT22;443;51.448;7.028;2022-12-20T09:39:19;13.20;69.40
913;DHT22;443;51.448;7.028;2022-12-20T09:41:46;13.20;69.50
913;DHT22;443;51.448;7.028;2022-12-20T09:44:17;13.20;68.70
913;DHT22;443;51.448;7.028;2022-12-20T09:46:48;13.20;70.30
913;DHT22;443;51.448;7.028;2022-12-20T09:49:18;13.20;69.10
913;DHT22;443;51.448;7.028;2022-12-20T09:51:57;13.20;69.10
913;DHT22;443;51.448;7.028;2022-12-20T09:54:33;13.20;69.30
913;DHT22;443;51.448;7.028;2022-12-20T09:57:08;13.20;69.20
913;DHT22;443;51.448;7.028;2022-12-20T09:59:41;13.20;68.40
913;DHT22;443;51.448;7.028;2022-12-20T10:02:08;13.20;69.80
913;DHT22;443;51.448;7.028;2022-12-20T10:04:38;13.30;69.00
913;DHT22;443;51.448;7.028;2022-12-20T10:07:16;13.20;69.10
913;DHT22;443;51.448;7.028;2022-12-20T10:10:02;13.30;70.10
913;DHT22;443;51.448;7.028;2022-12-20T10:12:38;13.20;68.50
913;DHT22;443;51.448;7.028;2022-12-20T10:15:17;13.30;69.20
913;DHT22;443;51.448;7.028;2022-12-20T10:17:53;13.30;68.30
913;DHT22;443;51.448;7.028;2022-12-20T10:20:31;13.30;69.90
913;DHT22;443;51.448;7.028;2022-12-20T10:23:06;13.30;69.30
913;DHT22;443;51.448;7.028;2022-12-20T10:25:35;13.30;69.60
913;DHT22;443;51.448;7.028;2022-12-20T10:28:03;13.20;69.40
913;DHT22;443;51.448;7.028;2022-12-20T10:30:32;13.30;69.70
913;DHT22;443;51.448;7.028;2022-12-20T10:32:59;13.30;69.30
913;DHT22;443;51.448;7.028;2022-12-20T10:35:29;13.30;69.80
913;DHT22;443;51.448;7.028;2022-12-20T10:38:01;13.30;69.50
913;DHT22;443;51.448;7.028;2022-12-20T10:40:30;13.30;69.20
913;DHT22;443;51.448;7.028;2022-12-20T10:42:58;13.30;69.10
913;DHT22;443;51.448;7.028;2022-12-20T10:45:33;13.30;70.40
913;DHT22;443;51.448;7.028;2022-12-20T10:48:04;13.30;68.20
913;DHT22;443;51.448;7.028;2022-12-20T10:50:33;13.30;69.60
913;DHT22;443;51.448;7.028;2022-12-20T10:53:21;13.30;68.30
913;DHT22;443;51.448;7.028;2022-12-20T10:55:49;13.30;69.80
913;DHT22;443;51.448;7.028;2022-12-20T10:58:19;13.30;68.90
913;DHT22;443;51.448;7.028;2022-12-20T11:00:47;13.30;68.40
913;DHT22;443;51.448;7.028;2022-12-20T11:03:17;13.30;68.90
913;DHT22;443;51.448;7.028;2022-12-20T11:05:57;13.30;68.80
913;DHT22;443;51.448;7.028;2022-12-20T11:08:27;13.30;69.20
913;DHT22;443;51.448;7.028;2022-12-20T11:11:14;13.40;69.80
913;DHT22;443;51.448;7.028;2022-12-20T11:13:42;13.30;69.70
913;DHT22;443;51.448;7.028;2022-12-20T11:16:32;13.30;69.60
913;DHT22;443;51.448;7.028;2022-12-20T11:19:34;13.30;69.10
913;DHT22;443;51.448;7.028;2022-12-20T11:22:19;13.30;68.30
913;DHT22;443;51.448;7.028;2022-12-20T11:24:53;13.30;69.40
913;DHT22;443;51.448;7.028;2022-12-20T11:27:28;13.30;69.30
913;DHT22;443;51.448;7.028;2022-12-20T11:30:29;13.30;68.60
913;DHT22;443;51.448;7.028;2022-12-20T11:33:13;13.30;68.10
913;DHT22;443;51.448;7.028;2022-12-20T11:35:51;13.30;69.00
913;DHT22;443;51.448;7.028;2022-12-20T11:38:31;13.30;69.70
913;DHT22;443;51.448;7.028;2022-12-20T11:41:12;13.40;69.70
913;DHT22;443;51.448;7.028;2022-12-20T11:43:54;13.40;69.20
913;DHT22;443;51.448;7.028;2022-12-20T11:46:35;13.30;69.60
913;DHT22;443;51.448;7.028;2022-12-20T11:49:16;13.40;69.10
913;DHT22;443;51.448;7.028;2022-12-20T11:51:47;13.40;70.00
913;DHT22;443;51.448;7.028;2022-12-20T11:54:22;13.40;68.50
913;DHT22;443;51.448;7.028;2022-12-20T11:56:56;13.40;70.50
913;DHT22;443;51.448;7.028;2022-12-20T11:59:34;13.40;70.10
913;DHT22;443;51.448;7.028;2022-12-20T12:02:08;13.40;69.60
913;DHT22;443;51.448;7.028;2022-12-20T12:04:39;13.40;69.00
913;DHT22;443;51.448;7.028;2022-12-20T12:07:10;13.40;68.80
913;DHT22;443;51.448;7.028;2022-12-20T12:09:46;13.40;69.60
913;DHT22;443;51.448;7.028;2022-12-20T12:12:20;13.40;70.60
913;DHT22;443;51.448;7.028;2022-12-20T12:14:52;13.40;68.90
913;DHT22;443;51.448;7.028;2022-12-20T12:17:27;13.40;69.20
913;DHT22;443;51.448;7.028;2022-12-20T12:20:04;13.40;69.70
913;DHT22;443;51.448;7.028;2022-12-20T12:22:35;13.40;69.70
913;DHT22;443;51.448;7.028;2022-12-20T12:25:10;13.40;69.60
913;DHT22;443;51.448;7.028;2022-12-20T12:27:40;13.40;69.20
913;DHT22;443;51.448;7.028;2022-12-20T12:30:12;13.40;69.80
913;DHT22;443;51.448;7.028;2022-12-20T12:32:41;13.40;68.50
913;DHT22;443;51.448;7.028;2022-12-20T12:35:29;13.40;69.10
913;DHT22;443;51.448;7.028;2022-12-20T12:38:14;13.50;69.70
913;DHT22;443;51.448;7.028;2022-12-20T12:44:05;13.40;68.40
913;DHT22;443;51.448;7.028;2022-12-20T12:46:54;13.40;69.40
913;DHT22;443;51.448;7.028;2022-12-20T12:49:27;13.40;69.00
913;DHT22;443;51.448;7.028;2022-12-20T12:51:58;13.40;68.50
913;DHT22;443;51.448;7.028;2022-12-20T12:54:28;13.50;69.20
913;DHT22;443;51.448;7.028;2022-12-20T12:56:59;13.50;69.60
913;DHT22;443;51.448;7.028;2022-12-20T12:59:50;13.50;69.80
913;DHT22;443;51.448;7.028;2022-12-20T13:02:34;13.50;69.40
913;DHT22;443;51.448;7.028;2022-12-20T13:05:34;13.50;69.20
913;DHT22;443;51.448;7.028;2022-12-20T13:08:01;13.40;70.40
913;DHT22;443;51.448;7.028;2022-12-20T13:10:59;13.40;69.80
913;DHT22;443;51.448;7.028;2022-12-20T13:13:27;13.40;71.00
913;DHT22;443;51.448;7.028;2022-12-20T13:16:26;13.40;71.00
913;DHT22;443;51.448;7.028;2022-12-20T13:19:11;13.40;72.40
913;DHT22;443;51.448;7.028;2022-12-20T13:21:40;13.40;72.20
913;DHT22;443;51.448;7.028;2022-12-20T13:24:38;13.40;72.70
913;DHT22;443;51.448;7.028;2022-12-20T13:27:27;13.40;72.60
913;DHT22;443;51.448;7.028;2022-12-20T13:36:00;13.40;71.70
913;DHT22;443;51.448;7.028;2022-12-20T13:38:55;13.40;70.40
913;DHT22;443;51.448;7.028;2022-12-20T13:41:35;13.40;71.60
913;DHT22;443;51.448;7.028;2022-12-20T13:44:27;13.40;72.00
913;DHT22;443;51.448;7.028;2022-12-20T13:47:01;13.40;74.50
913;DHT22;443;51.448;7.028;2022-12-20T13:49:34;13.30;71.50
913;DHT22;443;51.448;7.028;2022-12-20T13:52:26;13.40;73.60
913;DHT22;443;51.448;7.028;2022-12-20T13:54:56;13.30;72.40
913;DHT22;443;51.448;7.028;2022-12-20T13:57:30;13.30;73.40
913;DHT22;443;51.448;7.028;2022-12-20T14:00:00;13.30;73.40
913;DHT22;443;51.448;7.028;2022-12-20T14:02:32;13.30;75.30
913;DHT22;443;51.448;7.028;2022-12-20T14:05:04;13.30;73.70
913;DHT22;443;51.448;7.028;2022-12-20T14:07:34;13.20;73.40
913;DHT22;443;51.448;7.028;2022-12-20T14:10:11;13.30;72.70
913;DHT22;443;51.448;7.028;2022-12-20T14:12:44;13.30;73.60
913;DHT22;443;51.448;7.028;2022-12-20T14:15:21;13.30;73.30
913;DHT22;443;51.448;7.028;2022-12-20T14:17:48;13.30;73.00
913;DHT22;443;51.448;7.028;2022-12-20T14:20:19;13.20;71.90
913;DHT22;443;51.448;7.028;2022-12-20T14:22:52;13.20;72.90
913;DHT22;443;51.448;7.028;2022-12-20T14:25:28;13.30;74.20
913;DHT22;443;51.448;7.028;2022-12-20T14:27:57;13.30;75.30
913;DHT22;443;51.448;7.028;2022-12-20T14:30:30;13.20;72.00
913;DHT22;443;51.448;7.028;2022-12-20T14:32:58;13.20;73.20
913;DHT22;443;51.448;7.028;2022-12-20T14:35:26;13.30;72.10
913;DHT22;443;51.448;7.028;2022-12-20T14:37:56;13.20;72.70
913;DHT22;443;51.448;7.028;2022-12-20T14:40:24;13.20;73.40
913;DHT22;443;51.448;7.028;2022-12-20T14:42:52;13.20;72.10
913;DHT22;443;51.448;7.028;2022-12-20T14:45:22;13.20;72.90
913;DHT22;443;51.448;7.028;2022-12-20T14:47:56;13.20;73.10
913;DHT22;443;51.448;7.028;2022-12-20T14:50:28;13.20;73.00
913;DHT22;443;51.448;7.028;2022-12-20T14:52:56;13.30;75.30
913;DHT22;443;51.448;7.028;2022-12-20T14:55:26;13.20;72.70
913;DHT22;443;51.448;7.028;2022-12-20T14:57:55;13.20;74.30
913;DHT22;443;51.448;7.028;2022-12-20T15:00:24;13.20;74.00
913;DHT22;443;51.448;7.028;2022-12-20T15:02:59;13.20;73.70
913;DHT22;443;51.448;7.028;2022-12-20T15:05:48;13.20;71.80
913;DHT22;443;51.448;7.028;2022-12-20T15:08:17;13.20;73.90
913;DHT22;443;51.448;7.028;2022-12-20T15:10:55;13.20;73.80
913;DHT22;443;51.448;7.028;2022-12-20T15:13:26;13.20;72.20
913;DHT22;443;51.448;7.028;2022-12-20T15:15:53;13.20;73.50
913;DHT22;443;51.448;7.028;2022-12-20T15:18:20;13.20;72.80
913;DHT22;443;51.448;7.028;2022-12-20T15:21:02;13.20;73.70
913;DHT22;443;51.448;7.028;2022-12-20T15:23:30;13.20;75.00
913;DHT22;443;51.448;7.028;2022-12-20T15:25:58;13.20;72.60
913;DHT22;443;51.448;7.028;2022-12-20T15:28:25;13.20;72.00
913;DHT22;443;51.448;7.028;2022-12-20T15:30:53;13.20;72.20
913;DHT22;443;51.448;7.028;2022-12-20T15:33:22;13.30;74.30
913;DHT22;443;51.448;7.028;2022-12-20T15:35:51;13.20;73.30
913;DHT22;443;51.448;7.028;2022-12-20T15:38:20;13.20;72.40
913;DHT22;443;51.448;7.028;2022-12-20T15:40:49;13.20;72.20
913;DHT22;443;51.448;7.028;2022-12-20T15:43:19;13.20;73.70
913;DHT22;443;51.448;7.028;2022-12-20T15:45:49;13.20;71.60
913;DHT22;443;51.448;7.028;2022-12-20T15:48:18;13.20;74.40
913;DHT22;443;51.448;7.028;2022-12-20T15:50:49;13.20;72.60
913;DHT22;443;51.448;7.028;2022-12-20T15:53:21;13.20;73.50
913;DHT22;443;51.448;7.028;2022-12-20T15:55:50;13.20;71.70
913;DHT22;443;51.448;7.028;2022-12-20T15:58:17;13.30;70.70
913;DHT22;443;51.448;7.028;2022-12-20T16:00:44;13.30;70.90
913;DHT22;443;51.448;7.028;2022-12-20T16:03:13;13.30;71.90
913;DHT22;443;51.448;7.028;2022-12-20T16:05:40;13.20;71.20
913;DHT22;443;51.448;7.028;2022-12-20T16:08:08;13.30;71.00
913;DHT22;443;51.448;7.028;2022-12-20T16:10:36;13.30;70.30
913;DHT22;443;51.448;7.028;2022-12-20T16:13:03;13.30;71.10
913;DHT22;443;51.448;7.028;2022-12-20T16:15:32;13.30;72.30
913;DHT22;443;51.448;7.028;2022-12-20T16:17:58;13.30;71.10
913;DHT22;443;51.448;7.028;2022-12-20T16:20:25;13.30;71.30
913;DHT22;443;51.448;7.028;2022-12-20T16:22:54;13.30;71.90
913;DHT22;443;51.448;7.028;2022-12-20T16:25:26;13.30;71.60
913;DHT22;443;51.448;7.028;2022-12-20T16:27:55;13.30;71.00
913;DHT22;443;51.448;7.028;2022-12-20T16:30:22;13.30;72.80
913;DHT22;443;51.448;7.028;2022-12-20T16:32:49;13.30;73.30
913;DHT22;443;51.448;7.028;2022-12-20T16:35:28;13.30;72.10
913;DHT22;443;51.448;7.028;2022-12-20T16:37:56;13.30;73.00
913;DHT22;443;51.448;7.028;2022-12-20T16:40:25;13.30;71.90
913;DHT22;443;51.448;7.028;2022-12-20T16:42:52;13.30;73.50
913;DHT22;443;51.448;7.028;2022-12-20T16:45:22;13.20;72.20
913;DHT22;443;51.448;7.028;2022-12-20T16:47:50;13.20;72.10
913;DHT22;443;51.448;7.028;2022-12-20T16:50:18;13.20;73.90
913;DHT22;443;51.448;7.028;2022-12-20T16:52:45;13.30;72.10
913;DHT22;443;51.448;7.028;2022-12-20T16:55:15;13.30;73.30
913;DHT22;443;51.448;7.028;2022-12-20T16:57:43;13.30;72.60
913;DHT22;443;51.448;7.028;2022-12-20T17:00:16;13.20;72.90
913;DHT22;443;51.448;7.028;2022-12-20T17:02:45;13.30;72.80
913;DHT22;443;51.448;7.028;2022-12-20T17:05:21;13.20;72.80
913;DHT22;443;51.448;7.028;2022-12-20T17:07:49;13.20;72.00
913;DHT22;443;51.448;7.028;2022-12-20T17:10:16;13.30;73.40